Gelantipy, Australia
Current Conditions -  °F | °C
As of 7:32 PM on Tuesday 27 Jan 2015 (Local Time) from YCOM Reporting Station
Overcast Overcast  
Wind Chill: 55°   Ceiling: 1500
Heat Index: 55°   Visibility: NA
Dew Point: 50°   Wind: 13mph
Humidity: 82%   Direction: 50°NE
Pressure: 30"   Gusts: NA
Location:  37.22°S, 148.26°E
Report Text: YCOM 270832Z AUTO 05011KT //// // BKN015 BKN018 OVC026 13/10 Q1016
Loading
Personal Weather Stations






























Interactive Weather Map New forecast layout! Learn more

10-Day Weather Forecast

Advertisements
Track Severe Weather on mobile